sensor_id;sensor_type;location;lat;lon;timestamp;temperature;humidity
32322;DHT22;61553;48.994;8.940;2024-01-25T00:00:55;9.40;99.90
32322;DHT22;61553;48.994;8.940;2024-01-25T00:03:20;9.40;99.90
32322;DHT22;61553;48.994;8.940;2024-01-25T00:05:47;9.50;99.90
32322;DHT22;61553;48.994;8.940;2024-01-25T00:08:12;9.50;99.90
32322;DHT22;61553;48.994;8.940;2024-01-25T00:10:38;9.50;99.90
32322;DHT22;61553;48.994;8.940;2024-01-25T00:13:04;9.50;99.90
32322;DHT22;61553;48.994;8.940;2024-01-25T00:15:29;9.50;99.90
32322;DHT22;61553;48.994;8.940;2024-01-25T00:17:55;9.50;99.90
32322;DHT22;61553;48.994;8.940;2024-01-25T00:20:22;9.50;99.90
32322;DHT22;61553;48.994;8.940;2024-01-25T00:22:48;9.60;99.90
32322;DHT22;61553;48.994;8.940;2024-01-25T00:25:13;9.60;99.90
32322;DHT22;61553;48.994;8.940;2024-01-25T00:27:39;9.70;99.90
32322;DHT22;61553;48.994;8.940;2024-01-25T00:30:05;9.60;99.90
32322;DHT22;61553;48.994;8.940;2024-01-25T00:32:30;9.70;99.90
32322;DHT22;61553;48.994;8.940;2024-01-25T00:34:56;9.70;99.90
32322;DHT22;61553;48.994;8.940;2024-01-25T00:37:22;9.70;99.90
32322;DHT22;61553;48.994;8.940;2024-01-25T00:39:48;9.70;99.90
32322;DHT22;61553;48.994;8.940;2024-01-25T00:42:16;9.70;99.90
32322;DHT22;61553;48.994;8.940;2024-01-25T00:44:42;9.80;99.90
32322;DHT22;61553;48.994;8.940;2024-01-25T00:47:08;9.80;99.90
32322;DHT22;61553;48.994;8.940;2024-01-25T00:49:35;9.80;99.90
32322;DHT22;61553;48.994;8.940;2024-01-25T00:52:03;9.70;99.90
32322;DHT22;61553;48.994;8.940;2024-01-25T00:54:30;9.70;99.90
32322;DHT22;61553;48.994;8.940;2024-01-25T00:56:55;9.80;99.90
32322;DHT22;61553;48.994;8.940;2024-01-25T00:59:21;9.80;99.90
32322;DHT22;61553;48.994;8.940;2024-01-25T01:01:48;9.80;99.90
32322;DHT22;61553;48.994;8.940;2024-01-25T01:04:17;9.80;99.90
32322;DHT22;61553;48.994;8.940;2024-01-25T01:06:42;9.80;99.90
32322;DHT22;61553;48.994;8.940;2024-01-25T01:09:08;9.80;99.90
32322;DHT22;61553;48.994;8.940;2024-01-25T01:11:34;9.70;99.90
32322;DHT22;61553;48.994;8.940;2024-01-25T01:14:01;9.80;99.90
32322;DHT22;61553;48.994;8.940;2024-01-25T01:16:27;9.70;99.90
32322;DHT22;61553;48.994;8.940;2024-01-25T01:18:56;9.70;99.90
32322;DHT22;61553;48.994;8.940;2024-01-25T01:21:21;9.70;99.90
32322;DHT22;61553;48.994;8.940;2024-01-25T01:23:47;9.70;99.90
32322;DHT22;61553;48.994;8.940;2024-01-25T01:26:12;9.70;99.90
32322;DHT22;61553;48.994;8.940;2024-01-25T01:28:38;9.70;99.90
32322;DHT22;61553;48.994;8.940;2024-01-25T01:31:04;9.60;99.90
32322;DHT22;61553;48.994;8.940;2024-01-25T01:33:29;9.70;99.90
32322;DHT22;61553;48.994;8.940;2024-01-25T01:35:55;9.60;99.90
32322;DHT22;61553;48.994;8.940;2024-01-25T01:38:20;9.70;99.90
32322;DHT22;61553;48.994;8.940;2024-01-25T01:40:46;9.70;99.90
32322;DHT22;61553;48.994;8.940;2024-01-25T01:43:19;9.60;99.90
32322;DHT22;61553;48.994;8.940;2024-01-25T01:45:45;9.60;99.90
32322;DHT22;61553;48.994;8.940;2024-01-25T01:48:10;9.50;99.90
32322;DHT22;61553;48.994;8.940;2024-01-25T01:50:36;9.60;99.90
32322;DHT22;61553;48.994;8.940;2024-01-25T01:53:04;9.60;99.90
32322;DHT22;61553;48.994;8.940;2024-01-25T01:55:31;9.50;99.90
32322;DHT22;61553;48.994;8.940;2024-01-25T01:57:57;9.60;99.90
32322;DHT22;61553;48.994;8.940;2024-01-25T02:00:24;9.50;99.90
32322;DHT22;61553;48.994;8.940;2024-01-25T02:02:50;9.50;99.90
32322;DHT22;61553;48.994;8.940;2024-01-25T02:05:16;9.50;99.90
32322;DHT22;61553;48.994;8.940;2024-01-25T02:07:42;9.40;99.90
32322;DHT22;61553;48.994;8.940;2024-01-25T02:10:08;9.40;99.90
32322;DHT22;61553;48.994;8.940;2024-01-25T02:12:35;9.40;99.90
32322;DHT22;61553;48.994;8.940;2024-01-25T02:15:00;9.40;99.90
32322;DHT22;61553;48.994;8.940;2024-01-25T02:17:26;9.40;99.90
32322;DHT22;61553;48.994;8.940;2024-01-25T02:19:52;9.40;99.90
32322;DHT22;61553;48.994;8.940;2024-01-25T02:22:20;9.40;99.90
32322;DHT22;61553;48.994;8.940;2024-01-25T02:24:46;9.40;99.90
32322;DHT22;61553;48.994;8.940;2024-01-25T02:27:11;9.40;99.90
32322;DHT22;61553;48.994;8.940;2024-01-25T02:29:37;9.40;99.90
32322;DHT22;61553;48.994;8.940;2024-01-25T02:32:03;9.40;99.90
32322;DHT22;61553;48.994;8.940;2024-01-25T02:34:29;9.30;99.90
32322;DHT22;61553;48.994;8.940;2024-01-25T02:36:54;9.30;99.90
32322;DHT22;61553;48.994;8.940;2024-01-25T02:39:20;9.40;99.90
32322;DHT22;61553;48.994;8.940;2024-01-25T02:41:45;9.30;99.90
32322;DHT22;61553;48.994;8.940;2024-01-25T02:44:11;9.30;99.90
32322;DHT22;61553;48.994;8.940;2024-01-25T02:46:37;9.40;99.90
32322;DHT22;61553;48.994;8.940;2024-01-25T02:49:04;9.40;99.90
32322;DHT22;61553;48.994;8.940;2024-01-25T02:51:29;9.30;99.90
32322;DHT22;61553;48.994;8.940;2024-01-25T02:53:55;9.30;99.90
32322;DHT22;61553;48.994;8.940;2024-01-25T02:56:21;9.40;99.90
32322;DHT22;61553;48.994;8.940;2024-01-25T02:58:47;9.30;99.90
32322;DHT22;61553;48.994;8.940;2024-01-25T03:01:12;9.30;99.90
32322;DHT22;61553;48.994;8.940;2024-01-25T03:03:38;9.40;99.90
32322;DHT22;61553;48.994;8.940;2024-01-25T03:06:06;9.30;99.90
32322;DHT22;61553;48.994;8.940;2024-01-25T03:08:32;9.30;99.90
32322;DHT22;61553;48.994;8.940;2024-01-25T03:10:57;9.40;99.90
32322;DHT22;61553;48.994;8.940;2024-01-25T03:13:23;9.30;99.90
32322;DHT22;61553;48.994;8.940;2024-01-25T03:15:49;9.40;99.90
32322;DHT22;61553;48.994;8.940;2024-01-25T03:18:14;9.30;99.90
32322;DHT22;61553;48.994;8.940;2024-01-25T03:20:40;9.30;99.90
32322;DHT22;61553;48.994;8.940;2024-01-25T03:23:06;9.30;99.90
32322;DHT22;61553;48.994;8.940;2024-01-25T03:25:31;9.30;99.90
32322;DHT22;61553;48.994;8.940;2024-01-25T03:27:57;9.20;99.90
32322;DHT22;61553;48.994;8.940;2024-01-25T03:30:23;9.30;99.90
32322;DHT22;61553;48.994;8.940;2024-01-25T03:32:48;9.20;99.90
32322;DHT22;61553;48.994;8.940;2024-01-25T03:35:14;9.20;99.90
32322;DHT22;61553;48.994;8.940;2024-01-25T03:37:40;9.20;99.90
32322;DHT22;61553;48.994;8.940;2024-01-25T03:40:05;9.20;99.90
32322;DHT22;61553;48.994;8.940;2024-01-25T03:42:31;9.10;99.90
32322;DHT22;61553;48.994;8.940;2024-01-25T03:44:57;9.10;99.90
32322;DHT22;61553;48.994;8.940;2024-01-25T03:47:22;9.10;99.90
32322;DHT22;61553;48.994;8.940;2024-01-25T03:49:51;9.10;99.90
32322;DHT22;61553;48.994;8.940;2024-01-25T03:52:16;9.10;99.90
32322;DHT22;61553;48.994;8.940;2024-01-25T03:54:42;9.00;99.90
32322;DHT22;61553;48.994;8.940;2024-01-25T03:57:07;8.90;99.90
32322;DHT22;61553;48.994;8.940;2024-01-25T03:59:33;9.00;99.90
32322;DHT22;61553;48.994;8.940;2024-01-25T04:01:59;9.00;99.90
32322;DHT22;61553;48.994;8.940;2024-01-25T04:04:24;8.90;99.90
32322;DHT22;61553;48.994;8.940;2024-01-25T04:06:50;8.90;99.90
32322;DHT22;61553;48.994;8.940;2024-01-25T04:09:15;8.90;99.90
32322;DHT22;61553;48.994;8.940;2024-01-25T04:11:41;8.90;99.90
32322;DHT22;61553;48.994;8.940;2024-01-25T04:14:07;8.90;99.90
32322;DHT22;61553;48.994;8.940;2024-01-25T04:16:33;8.90;99.90
32322;DHT22;61553;48.994;8.940;2024-01-25T04:18:59;8.90;99.90
32322;DHT22;61553;48.994;8.940;2024-01-25T04:21:25;8.90;99.90
32322;DHT22;61553;48.994;8.940;2024-01-25T04:23:50;8.90;99.90
32322;DHT22;61553;48.994;8.940;2024-01-25T04:26:16;8.90;99.90
32322;DHT22;61553;48.994;8.940;2024-01-25T04:28:42;8.90;99.90
32322;DHT22;61553;48.994;8.940;2024-01-25T04:31:07;8.80;99.90
32322;DHT22;61553;48.994;8.940;2024-01-25T04:33:33;8.90;99.90
32322;DHT22;61553;48.994;8.940;2024-01-25T04:35:59;8.80;99.90
32322;DHT22;61553;48.994;8.940;2024-01-25T04:38:25;8.90;99.90
32322;DHT22;61553;48.994;8.940;2024-01-25T04:40:50;8.80;99.90
32322;DHT22;61553;48.994;8.940;2024-01-25T04:43:16;8.70;99.90
32322;DHT22;61553;48.994;8.940;2024-01-25T04:45:42;8.70;99.90
32322;DHT22;61553;48.994;8.940;2024-01-25T04:48:07;8.60;99.90
32322;DHT22;61553;48.994;8.940;2024-01-25T04:50:33;8.60;99.90
32322;DHT22;61553;48.994;8.940;2024-01-25T04:53:01;8.50;99.90
32322;DHT22;61553;48.994;8.940;2024-01-25T04:55:27;8.50;99.90
32322;DHT22;61553;48.994;8.940;2024-01-25T04:57:53;8.40;99.90
32322;DHT22;61553;48.994;8.940;2024-01-25T05:00:20;8.30;99.90
32322;DHT22;61553;48.994;8.940;2024-01-25T05:02:47;8.20;99.90
32322;DHT22;61553;48.994;8.940;2024-01-25T05:05:13;8.10;99.90
32322;DHT22;61553;48.994;8.940;2024-01-25T05:07:38;8.00;99.90
32322;DHT22;61553;48.994;8.940;2024-01-25T05:10:05;8.00;99.90
32322;DHT22;61553;48.994;8.940;2024-01-25T05:12:30;8.00;99.90
32322;DHT22;61553;48.994;8.940;2024-01-25T05:14:56;7.90;99.90
32322;DHT22;61553;48.994;8.940;2024-01-25T05:17:21;7.90;99.90
32322;DHT22;61553;48.994;8.940;2024-01-25T05:19:47;7.80;99.90
32322;DHT22;61553;48.994;8.940;2024-01-25T05:22:13;7.70;99.90
32322;DHT22;61553;48.994;8.940;2024-01-25T05:24:38;7.60;99.90
32322;DHT22;61553;48.994;8.940;2024-01-25T05:27:04;7.60;99.90
32322;DHT22;61553;48.994;8.940;2024-01-25T05:29:30;7.60;99.90
32322;DHT22;61553;48.994;8.940;2024-01-25T05:31:55;7.50;99.90
32322;DHT22;61553;48.994;8.940;2024-01-25T05:34:21;7.50;99.90
32322;DHT22;61553;48.994;8.940;2024-01-25T05:36:47;7.40;99.90
32322;DHT22;61553;48.994;8.940;2024-01-25T05:39:13;7.30;99.90
32322;DHT22;61553;48.994;8.940;2024-01-25T05:41:39;7.20;99.90
32322;DHT22;61553;48.994;8.940;2024-01-25T05:44:05;7.20;99.90
32322;DHT22;61553;48.994;8.940;2024-01-25T05:46:30;7.10;99.90
32322;DHT22;61553;48.994;8.940;2024-01-25T05:48:56;7.10;99.90
32322;DHT22;61553;48.994;8.940;2024-01-25T05:51:23;7.00;99.90
32322;DHT22;61553;48.994;8.940;2024-01-25T05:53:48;7.10;99.90
32322;DHT22;61553;48.994;8.940;2024-01-25T05:56:14;7.10;99.90
32322;DHT22;61553;48.994;8.940;2024-01-25T05:58:40;7.00;99.90
32322;DHT22;61553;48.994;8.940;2024-01-25T06:01:06;6.90;99.90
32322;DHT22;61553;48.994;8.940;2024-01-25T06:03:32;6.80;99.90
32322;DHT22;61553;48.994;8.940;2024-01-25T06:05:57;6.80;99.90
32322;DHT22;61553;48.994;8.940;2024-01-25T06:08:23;6.80;99.90
32322;DHT22;61553;48.994;8.940;2024-01-25T06:10:49;6.70;99.90
32322;DHT22;61553;48.994;8.940;2024-01-25T06:13:15;6.70;99.90
32322;DHT22;61553;48.994;8.940;2024-01-25T06:15:41;6.70;99.90
32322;DHT22;61553;48.994;8.940;2024-01-25T06:18:07;6.60;99.90
32322;DHT22;61553;48.994;8.940;2024-01-25T06:20:32;6.40;99.90
32322;DHT22;61553;48.994;8.940;2024-01-25T06:22:58;6.30;99.90
32322;DHT22;61553;48.994;8.940;2024-01-25T06:25:25;6.30;99.90
32322;DHT22;61553;48.994;8.940;2024-01-25T06:27:53;6.20;99.90
32322;DHT22;61553;48.994;8.940;2024-01-25T06:30:20;6.10;99.90
32322;DHT22;61553;48.994;8.940;2024-01-25T06:32:47;6.00;99.90
32322;DHT22;61553;48.994;8.940;2024-01-25T06:35:14;6.00;99.90
32322;DHT22;61553;48.994;8.940;2024-01-25T06:37:39;5.90;99.90
32322;DHT22;61553;48.994;8.940;2024-01-25T06:40:06;6.00;99.90
32322;DHT22;61553;48.994;8.940;2024-01-25T06:42:31;5.90;99.90
32322;DHT22;61553;48.994;8.940;2024-01-25T06:44:57;5.90;99.90
32322;DHT22;61553;48.994;8.940;2024-01-25T06:47:23;5.90;99.90
32322;DHT22;61553;48.994;8.940;2024-01-25T06:49:48;5.90;99.90
32322;DHT22;61553;48.994;8.940;2024-01-25T06:52:17;5.80;99.90
32322;DHT22;61553;48.994;8.940;2024-01-25T06:54:43;5.70;99.90
32322;DHT22;61553;48.994;8.940;2024-01-25T06:57:08;5.60;99.90
32322;DHT22;61553;48.994;8.940;2024-01-25T06:59:34;5.60;99.90
32322;DHT22;61553;48.994;8.940;2024-01-25T07:02:00;5.50;99.90
32322;DHT22;61553;48.994;8.940;2024-01-25T07:04:28;5.50;99.90
32322;DHT22;61553;48.994;8.940;2024-01-25T07:06:54;5.40;99.90
32322;DHT22;61553;48.994;8.940;2024-01-25T07:09:20;5.40;99.90
32322;DHT22;61553;48.994;8.940;2024-01-25T07:11:45;5.30;99.90
32322;DHT22;61553;48.994;8.940;2024-01-25T07:14:11;5.40;99.90
32322;DHT22;61553;48.994;8.940;2024-01-25T07:16:37;5.40;99.90
32322;DHT22;61553;48.994;8.940;2024-01-25T07:19:03;5.40;99.90
32322;DHT22;61553;48.994;8.940;2024-01-25T07:21:29;5.40;99.90
32322;DHT22;61553;48.994;8.940;2024-01-25T07:24:00;5.40;99.90
32322;DHT22;61553;48.994;8.940;2024-01-25T07:26:26;5.50;99.90
32322;DHT22;61553;48.994;8.940;2024-01-25T07:28:52;5.40;99.90
32322;DHT22;61553;48.994;8.940;2024-01-25T07:31:26;5.40;99.90
32322;DHT22;61553;48.994;8.940;2024-01-25T07:33:52;5.40;99.90
32322;DHT22;61553;48.994;8.940;2024-01-25T07:36:18;5.40;99.90
32322;DHT22;61553;48.994;8.940;2024-01-25T07:38:44;5.40;99.90
32322;DHT22;61553;48.994;8.940;2024-01-25T07:41:12;5.50;99.90
32322;DHT22;61553;48.994;8.940;2024-01-25T07:43:38;5.40;99.90
32322;DHT22;61553;48.994;8.940;2024-01-25T07:46:03;5.50;99.90
32322;DHT22;61553;48.994;8.940;2024-01-25T07:48:29;5.50;99.90
32322;DHT22;61553;48.994;8.940;2024-01-25T07:50:55;5.60;99.90
32322;DHT22;61553;48.994;8.940;2024-01-25T07:53:20;5.60;99.90
32322;DHT22;61553;48.994;8.940;2024-01-25T07:55:46;5.70;99.90
32322;DHT22;61553;48.994;8.940;2024-01-25T07:58:11;5.70;99.90
32322;DHT22;61553;48.994;8.940;2024-01-25T08:00:37;5.80;99.90
32322;DHT22;61553;48.994;8.940;2024-01-25T08:03:03;5.90;99.90
32322;DHT22;61553;48.994;8.940;2024-01-25T08:05:29;6.00;99.90
32322;DHT22;61553;48.994;8.940;2024-01-25T08:07:54;5.90;99.90
32322;DHT22;61553;48.994;8.940;2024-01-25T08:10:20;6.00;99.90
32322;DHT22;61553;48.994;8.940;2024-01-25T08:12:45;6.10;99.90
32322;DHT22;61553;48.994;8.940;2024-01-25T08:15:13;6.20;99.90
32322;DHT22;61553;48.994;8.940;2024-01-25T08:17:39;6.30;99.90
32322;DHT22;61553;48.994;8.940;2024-01-25T08:20:05;6.40;99.90
32322;DHT22;61553;48.994;8.940;2024-01-25T08:22:31;6.50;99.90
32322;DHT22;61553;48.994;8.940;2024-01-25T08:24:57;6.60;99.90
32322;DHT22;61553;48.994;8.940;2024-01-25T08:27:23;6.80;99.90
32322;DHT22;61553;48.994;8.940;2024-01-25T08:29:49;7.00;99.90
32322;DHT22;61553;48.994;8.940;2024-01-25T08:32:14;7.20;99.90
32322;DHT22;61553;48.994;8.940;2024-01-25T08:34:40;7.40;99.90
32322;DHT22;61553;48.994;8.940;2024-01-25T08:37:05;7.60;99.90
32322;DHT22;61553;48.994;8.940;2024-01-25T08:39:31;7.80;99.90
32322;DHT22;61553;48.994;8.940;2024-01-25T08:41:56;8.10;99.90
32322;DHT22;61553;48.994;8.940;2024-01-25T08:44:26;8.70;99.90
32322;DHT22;61553;48.994;8.940;2024-01-25T08:46:51;9.60;99.90
32322;DHT22;61553;48.994;8.940;2024-01-25T08:49:17;10.90;99.90
32322;DHT22;61553;48.994;8.940;2024-01-25T08:51:42;11.70;99.90
32322;DHT22;61553;48.994;8.940;2024-01-25T08:54:08;12.50;99.90
32322;DHT22;61553;48.994;8.940;2024-01-25T08:56:34;13.10;99.90
32322;DHT22;61553;48.994;8.940;2024-01-25T08:59:00;13.70;99.90
32322;DHT22;61553;48.994;8.940;2024-01-25T09:01:25;14.30;99.90
32322;DHT22;61553;48.994;8.940;2024-01-25T09:03:51;14.90;99.90
32322;DHT22;61553;48.994;8.940;2024-01-25T09:06:17;15.00;98.90
32322;DHT22;61553;48.994;8.940;2024-01-25T09:08:43;15.40;99.00
32322;DHT22;61553;48.994;8.940;2024-01-25T09:11:08;15.90;97.40
32322;DHT22;61553;48.994;8.940;2024-01-25T09:13:34;16.00;95.60
32322;DHT22;61553;48.994;8.940;2024-01-25T09:15:59;15.90;95.50
32322;DHT22;61553;48.994;8.940;2024-01-25T09:18:25;16.20;95.40
32322;DHT22;61553;48.994;8.940;2024-01-25T09:20:50;16.50;93.80
32322;DHT22;61553;48.994;8.940;2024-01-25T09:23:16;16.80;93.00
32322;DHT22;61553;48.994;8.940;2024-01-25T09:25:45;16.60;93.20
32322;DHT22;61553;48.994;8.940;2024-01-25T09:28:11;17.00;91.90
32322;DHT22;61553;48.994;8.940;2024-01-25T09:30:41;17.00;91.30
32322;DHT22;61553;48.994;8.940;2024-01-25T09:33:07;16.50;91.40
32322;DHT22;61553;48.994;8.940;2024-01-25T09:35:33;15.40;93.10
32322;DHT22;61553;48.994;8.940;2024-01-25T09:37:58;15.30;93.40
32322;DHT22;61553;48.994;8.940;2024-01-25T09:40:24;15.10;94.10
32322;DHT22;61553;48.994;8.940;2024-01-25T09:42:52;14.90;94.50
32322;DHT22;61553;48.994;8.940;2024-01-25T09:45:18;15.10;94.60
32322;DHT22;61553;48.994;8.940;2024-01-25T09:47:45;15.10;94.30
32322;DHT22;61553;48.994;8.940;2024-01-25T09:50:11;14.50;94.80
32322;DHT22;61553;48.994;8.940;2024-01-25T09:52:38;13.80;96.00
32322;DHT22;61553;48.994;8.940;2024-01-25T09:55:06;13.50;96.70
32322;DHT22;61553;48.994;8.940;2024-01-25T09:57:35;13.00;98.00
32322;DHT22;61553;48.994;8.940;2024-01-25T10:00:03;12.70;99.30
32322;DHT22;61553;48.994;8.940;2024-01-25T10:02:29;12.20;99.90
32322;DHT22;61553;48.994;8.940;2024-01-25T10:04:54;11.90;99.90
32322;DHT22;61553;48.994;8.940;2024-01-25T10:07:39;11.60;99.90
32322;DHT22;61553;48.994;8.940;2024-01-25T10:10:05;11.50;99.90
32322;DHT22;61553;48.994;8.940;2024-01-25T10:12:32;11.60;99.90
32322;DHT22;61553;48.994;8.940;2024-01-25T10:14:58;12.60;99.90
32322;DHT22;61553;48.994;8.940;2024-01-25T10:17:23;13.80;99.90
32322;DHT22;61553;48.994;8.940;2024-01-25T10:19:49;14.90;98.10
32322;DHT22;61553;48.994;8.940;2024-01-25T10:22:15;14.70;97.70
32322;DHT22;61553;48.994;8.940;2024-01-25T10:24:40;15.60;95.70
32322;DHT22;61553;48.994;8.940;2024-01-25T10:27:10;15.80;94.90
32322;DHT22;61553;48.994;8.940;2024-01-25T10:29:36;16.40;93.50
32322;DHT22;61553;48.994;8.940;2024-01-25T10:32:05;17.60;91.60
32322;DHT22;61553;48.994;8.940;2024-01-25T10:34:31;17.10;90.30
32322;DHT22;61553;48.994;8.940;2024-01-25T10:36:58;17.20;90.50
32322;DHT22;61553;48.994;8.940;2024-01-25T10:39:24;17.70;88.40
32322;DHT22;61553;48.994;8.940;2024-01-25T10:41:50;18.30;86.10
32322;DHT22;61553;48.994;8.940;2024-01-25T10:44:19;18.30;86.10
32322;DHT22;61553;48.994;8.940;2024-01-25T10:46:48;18.20;84.10
32322;DHT22;61553;48.994;8.940;2024-01-25T10:49:15;17.50;85.50
32322;DHT22;61553;48.994;8.940;2024-01-25T10:51:42;17.80;83.90
32322;DHT22;61553;48.994;8.940;2024-01-25T10:54:08;17.00;85.30
32322;DHT22;61553;48.994;8.940;2024-01-25T10:56:38;15.90;88.60
32322;DHT22;61553;48.994;8.940;2024-01-25T10:59:06;15.40;90.30
32322;DHT22;61553;48.994;8.940;2024-01-25T11:01:34;14.60;92.00
32322;DHT22;61553;48.994;8.940;2024-01-25T11:04:00;14.00;93.00
32322;DHT22;61553;48.994;8.940;2024-01-25T11:06:27;13.50;94.40
32322;DHT22;61553;48.994;8.940;2024-01-25T11:09:04;13.30;95.20
32322;DHT22;61553;48.994;8.940;2024-01-25T11:11:31;13.60;95.40
32322;DHT22;61553;48.994;8.940;2024-01-25T11:13:58;13.30;95.80
32322;DHT22;61553;48.994;8.940;2024-01-25T11:16:32;13.00;96.50
32322;DHT22;61553;48.994;8.940;2024-01-25T11:19:00;12.60;96.60
32322;DHT22;61553;48.994;8.940;2024-01-25T11:21:45;12.40;97.90
32322;DHT22;61553;48.994;8.940;2024-01-25T11:26:38;12.20;99.80
32322;DHT22;61553;48.994;8.940;2024-01-25T11:29:03;12.20;99.90
32322;DHT22;61553;48.994;8.940;2024-01-25T11:31:29;12.30;99.90
32322;DHT22;61553;48.994;8.940;2024-01-25T11:33:58;12.50;99.90
32322;DHT22;61553;48.994;8.940;2024-01-25T11:36:25;12.40;99.90
32322;DHT22;61553;48.994;8.940;2024-01-25T11:38:51;12.60;99.20
32322;DHT22;61553;48.994;8.940;2024-01-25T11:41:16;12.60;99.00
32322;DHT22;61553;48.994;8.940;2024-01-25T11:43:42;12.60;99.90
32322;DHT22;61553;48.994;8.940;2024-01-25T11:46:08;12.80;98.90
32322;DHT22;61553;48.994;8.940;2024-01-25T11:48:38;12.90;98.30
32322;DHT22;61553;48.994;8.940;2024-01-25T11:51:03;12.80;98.60
32322;DHT22;61553;48.994;8.940;2024-01-25T11:53:29;12.60;99.40
32322;DHT22;61553;48.994;8.940;2024-01-25T11:55:55;12.40;99.90
32322;DHT22;61553;48.994;8.940;2024-01-25T11:58:22;12.20;99.90
32322;DHT22;61553;48.994;8.940;2024-01-25T12:00:48;11.90;99.90
32322;DHT22;61553;48.994;8.940;2024-01-25T12:03:14;11.60;99.90
32322;DHT22;61553;48.994;8.940;2024-01-25T12:05:41;11.30;99.90
32322;DHT22;61553;48.994;8.940;2024-01-25T12:08:13;11.30;99.90
32322;DHT22;61553;48.994;8.940;2024-01-25T12:10:39;11.40;99.90
32322;DHT22;61553;48.994;8.940;2024-01-25T12:13:09;11.30;99.90
32322;DHT22;61553;48.994;8.940;2024-01-25T12:15:35;11.30;99.90
32322;DHT22;61553;48.994;8.940;2024-01-25T12:18:01;11.20;99.90
32322;DHT22;61553;48.994;8.940;2024-01-25T12:20:28;11.10;99.90
32322;DHT22;61553;48.994;8.940;2024-01-25T12:22:53;11.00;99.90
32322;DHT22;61553;48.994;8.940;2024-01-25T12:25:19;10.90;99.90
32322;DHT22;61553;48.994;8.940;2024-01-25T12:27:45;10.80;99.90
32322;DHT22;61553;48.994;8.940;2024-01-25T12:30:14;10.80;99.90
32322;DHT22;61553;48.994;8.940;2024-01-25T12:32:40;10.80;99.90
32322;DHT22;61553;48.994;8.940;2024-01-25T12:35:06;10.80;99.90
32322;DHT22;61553;48.994;8.940;2024-01-25T12:37:33;10.80;99.90
32322;DHT22;61553;48.994;8.940;2024-01-25T12:39:59;10.70;99.90
32322;DHT22;61553;48.994;8.940;2024-01-25T12:42:25;10.60;99.90
32322;DHT22;61553;48.994;8.940;2024-01-25T12:44:53;10.50;99.90
32322;DHT22;61553;48.994;8.940;2024-01-25T12:47:19;10.60;99.90
32322;DHT22;61553;48.994;8.940;2024-01-25T12:49:45;10.60;99.90
32322;DHT22;61553;48.994;8.940;2024-01-25T12:52:11;10.70;99.90
32322;DHT22;61553;48.994;8.940;2024-01-25T12:54:38;10.80;99.90
32322;DHT22;61553;48.994;8.940;2024-01-25T12:57:05;10.90;99.90
32322;DHT22;61553;48.994;8.940;2024-01-25T12:59:35;10.90;99.90
32322;DHT22;61553;48.994;8.940;2024-01-25T13:02:01;11.00;99.90
32322;DHT22;61553;48.994;8.940;2024-01-25T13:04:27;11.10;99.90
32322;DHT22;61553;48.994;8.940;2024-01-25T13:06:54;11.20;99.90
32322;DHT22;61553;48.994;8.940;2024-01-25T13:09:20;11.20;99.90
32322;DHT22;61553;48.994;8.940;2024-01-25T13:11:46;11.20;99.90
32322;DHT22;61553;48.994;8.940;2024-01-25T13:14:12;11.20;99.90
32322;DHT22;61553;48.994;8.940;2024-01-25T13:16:38;11.10;99.90
32322;DHT22;61553;48.994;8.940;2024-01-25T13:19:03;11.20;99.90
32322;DHT22;61553;48.994;8.940;2024-01-25T13:21:29;11.20;99.90
32322;DHT22;61553;48.994;8.940;2024-01-25T13:23:55;11.30;99.90
32322;DHT22;61553;48.994;8.940;2024-01-25T13:26:20;11.30;99.90
32322;DHT22;61553;48.994;8.940;2024-01-25T13:28:46;11.20;99.90
32322;DHT22;61553;48.994;8.940;2024-01-25T13:31:12;11.20;99.90
32322;DHT22;61553;48.994;8.940;2024-01-25T13:33:37;11.20;99.90
32322;DHT22;61553;48.994;8.940;2024-01-25T13:36:03;11.20;99.90
32322;DHT22;61553;48.994;8.940;2024-01-25T13:38:34;11.20;99.90
32322;DHT22;61553;48.994;8.940;2024-01-25T13:41:00;11.20;99.90
32322;DHT22;61553;48.994;8.940;2024-01-25T13:43:25;11.20;99.90
32322;DHT22;61553;48.994;8.940;2024-01-25T13:45:51;11.30;99.90
32322;DHT22;61553;48.994;8.940;2024-01-25T13:48:16;11.30;99.90
32322;DHT22;61553;48.994;8.940;2024-01-25T13:50:44;11.40;99.90
32322;DHT22;61553;48.994;8.940;2024-01-25T13:53:10;11.40;99.90
32322;DHT22;61553;48.994;8.940;2024-01-25T13:55:36;11.40;99.90
32322;DHT22;61553;48.994;8.940;2024-01-25T13:58:02;11.30;99.90
32322;DHT22;61553;48.994;8.940;2024-01-25T14:00:27;11.20;99.90
32322;DHT22;61553;48.994;8.940;2024-01-25T14:02:53;11.30;99.90
32322;DHT22;61553;48.994;8.940;2024-01-25T14:05:19;11.40;99.90
32322;DHT22;61553;48.994;8.940;2024-01-25T14:07:45;11.50;99.90
32322;DHT22;61553;48.994;8.940;2024-01-25T14:10:10;11.70;99.90
32322;DHT22;61553;48.994;8.940;2024-01-25T14:12:36;11.90;99.90
32322;DHT22;61553;48.994;8.940;2024-01-25T14:15:02;12.00;99.90
32322;DHT22;61553;48.994;8.940;2024-01-25T14:17:27;12.10;99.90
32322;DHT22;61553;48.994;8.940;2024-01-25T14:19:53;12.00;99.90
32322;DHT22;61553;48.994;8.940;2024-01-25T14:22:19;11.90;99.90
32322;DHT22;61553;48.994;8.940;2024-01-25T14:24:46;11.80;99.90
32322;DHT22;61553;48.994;8.940;2024-01-25T14:27:11;11.70;99.90
32322;DHT22;61553;48.994;8.940;2024-01-25T14:29:37;11.50;99.90
32322;DHT22;61553;48.994;8.940;2024-01-25T14:32:03;11.40;99.90
32322;DHT22;61553;48.994;8.940;2024-01-25T14:34:28;11.30;99.90
32322;DHT22;61553;48.994;8.940;2024-01-25T14:36:54;11.20;99.90
32322;DHT22;61553;48.994;8.940;2024-01-25T14:39:20;11.20;99.90
32322;DHT22;61553;48.994;8.940;2024-01-25T14:41:45;11.00;99.90
32322;DHT22;61553;48.994;8.940;2024-01-25T14:44:11;11.00;99.90
32322;DHT22;61553;48.994;8.940;2024-01-25T14:46:37;10.80;99.90
32322;DHT22;61553;48.994;8.940;2024-01-25T14:49:03;10.80;99.90
32322;DHT22;61553;48.994;8.940;2024-01-25T14:51:29;10.70;99.90
32322;DHT22;61553;48.994;8.940;2024-01-25T14:53:55;10.60;99.90
32322;DHT22;61553;48.994;8.940;2024-01-25T14:56:21;10.60;99.90
32322;DHT22;61553;48.994;8.940;2024-01-25T14:58:47;10.50;99.90
32322;DHT22;61553;48.994;8.940;2024-01-25T15:01:13;10.50;99.90
32322;DHT22;61553;48.994;8.940;2024-01-25T15:03:39;10.40;99.90
32322;DHT22;61553;48.994;8.940;2024-01-25T15:06:05;10.30;99.90
32322;DHT22;61553;48.994;8.940;2024-01-25T15:08:31;10.30;99.90
32322;DHT22;61553;48.994;8.940;2024-01-25T15:10:56;10.30;99.90
32322;DHT22;61553;48.994;8.940;2024-01-25T15:13:22;10.30;99.90
32322;DHT22;61553;48.994;8.940;2024-01-25T15:15:48;10.30;99.90
32322;DHT22;61553;48.994;8.940;2024-01-25T15:18:13;10.30;99.90
32322;DHT22;61553;48.994;8.940;2024-01-25T15:20:39;10.40;99.90
32322;DHT22;61553;48.994;8.940;2024-01-25T15:23:04;10.40;99.90
32322;DHT22;61553;48.994;8.940;2024-01-25T15:25:30;10.40;99.90
32322;DHT22;61553;48.994;8.940;2024-01-25T15:27:56;10.40;99.90
32322;DHT22;61553;48.994;8.940;2024-01-25T15:30:21;10.30;99.90
32322;DHT22;61553;48.994;8.940;2024-01-25T15:32:47;10.20;99.90
32322;DHT22;61553;48.994;8.940;2024-01-25T15:35:13;10.20;99.90